Time;durP1;ratioP1;P1;durP2;ratioP2;P2;SDS_P1;SDS_P2;PMS_P1;PMS_P2;Temp;Humidity;BMP_temperature;BMP_pressure;BME280_temperature;BME280_humidity;BME280_pressure;Samples;Min_cycle;Max_cycle;Signal;HPM_P1;HPM_P2
2023/03/09 00:02:20;;;;;;;1.93;1.30;;;8.70;99.90;;;;;;4952013;29;20965;-73
2023/03/09 00:04:47;;;;;;;2.00;1.10;;;8.90;99.90;;;;;;4951602;29;20490;-75
2023/03/09 00:07:13;;;;;;;2.53;1.37;;;9.10;99.90;;;;;;4952076;29;20458;-75
2023/03/09 00:09:40;;;;;;;4.73;1.40;;;9.20;99.90;;;;;;4965223;29;20498;-74
2023/03/09 00:12:08;;;;;;;2.07;1.33;;;9.40;99.90;;;;;;4966945;29;20485;-72
2023/03/09 00:14:34;;;;;;;3.83;1.40;;;9.40;99.90;;;;;;4969681;29;20441;-74
2023/03/09 00:17:03;;;;;;;2.13;1.20;;;9.50;99.90;;;;;;4961920;28;20451;-75
2023/03/09 00:19:30;;;;;;;2.03;1.40;;;9.70;99.90;;;;;;4962975;29;21023;-72
2023/03/09 00:21:58;;;;;;;1.43;1.33;;;9.70;99.90;;;;;;4951832;29;20910;-75
2023/03/09 00:24:27;;;;;;;1.17;1.07;;;9.80;99.90;;;;;;4951419;29;20495;-74
2023/03/09 00:26:55;;;;;;;1.60;1.20;;;9.80;99.90;;;;;;4951335;29;20466;-75
2023/03/09 00:29:23;;;;;;;1.47;1.30;;;9.80;99.90;;;;;;4950465;29;20467;-74
2023/03/09 00:31:49;;;;;;;2.00;1.20;;;10.00;99.90;;;;;;4951689;29;20459;-74
2023/03/09 00:34:17;;;;;;;2.40;1.40;;;9.90;99.90;;;;;;4951925;29;20443;-88
2023/03/09 00:36:45;;;;;;;2.23;1.10;;;9.90;99.90;;;;;;4951962;29;20486;-87
2023/03/09 00:39:13;;;;;;;1.40;1.00;;;9.90;99.90;;;;;;4952132;29;20876;-87
2023/03/09 00:41:40;;;;;;;1.80;1.20;;;10.00;99.90;;;;;;4952891;29;20462;-87
2023/03/09 00:44:07;;;;;;;1.50;1.00;;;10.00;99.90;;;;;;4952114;29;20479;-88
2023/03/09 00:46:35;;;;;;;1.63;1.33;;;9.90;99.90;;;;;;4950786;29;20474;-87
2023/03/09 00:49:03;;;;;;;2.60;1.10;;;10.00;99.90;;;;;;4951774;29;21041;-86
2023/03/09 00:51:31;;;;;;;2.60;1.77;;;10.10;99.90;;;;;;4952463;29;20443;-87
2023/03/09 00:53:58;;;;;;;1.50;1.20;;;10.30;99.90;;;;;;4952357;29;20479;-88
2023/03/09 00:56:27;;;;;;;1.10;1.00;;;10.30;99.90;;;;;;4952029;29;20458;-87
2023/03/09 00:58:54;;;;;;;1.60;0.90;;;10.30;99.90;;;;;;4952704;29;20451;-88
2023/03/09 01:01:22;;;;;;;1.23;1.00;;;10.30;99.90;;;;;;4952630;29;20710;-86
2023/03/09 01:03:49;;;;;;;1.70;0.80;;;10.50;99.90;;;;;;4951207;29;20513;-87
2023/03/09 01:06:16;;;;;;;1.00;0.80;;;10.40;99.90;;;;;;4951856;29;20446;-87
2023/03/09 01:08:45;;;;;;;1.00;0.70;;;10.40;99.90;;;;;;4951591;29;20462;-88
2023/03/09 01:11:14;;;;;;;1.00;0.90;;;10.50;99.90;;;;;;4951679;29;21007;-88
2023/03/09 01:13:41;;;;;;;1.10;0.73;;;10.50;99.90;;;;;;4951925;29;20462;-88
2023/03/09 01:16:08;;;;;;;1.30;0.90;;;10.70;99.90;;;;;;4951709;29;20451;-87
2023/03/09 01:18:35;;;;;;;1.17;0.83;;;10.50;99.90;;;;;;4951494;29;20451;-87
2023/03/09 01:21:02;;;;;;;2.03;1.00;;;10.50;99.90;;;;;;4949950;29;20926;-88
2023/03/09 01:23:29;;;;;;;1.67;0.80;;;10.50;99.90;;;;;;4952188;29;20885;-87
2023/03/09 01:25:58;;;;;;;2.17;0.70;;;10.40;99.90;;;;;;4951252;29;20459;-89
2023/03/09 01:28:25;;;;;;;1.27;0.93;;;10.40;99.90;;;;;;4950447;28;20459;-87
2023/03/09 01:30:51;;;;;;;1.07;0.90;;;10.40;99.90;;;;;;4951177;29;20451;-87
2023/03/09 01:33:18;;;;;;;1.00;0.90;;;10.40;99.90;;;;;;4951349;29;20455;-87
2023/03/09 01:35:45;;;;;;;2.37;1.10;;;10.40;99.90;;;;;;4950092;29;20455;-88
2023/03/09 01:38:12;;;;;;;2.77;0.97;;;10.50;99.90;;;;;;4951005;29;20457;-86
2023/03/09 01:40:39;;;;;;;0.83;0.70;;;10.50;99.90;;;;;;4951071;29;20462;-86
2023/03/09 01:46:34;;;;;;;0.90;0.73;;;10.60;99.90;;;;;;5126444;27;20957;-89
2023/03/09 01:49:08;;;;;;;0.90;0.70;;;10.70;99.90;;;;;;5126472;27;20450;-88
2023/03/09 01:51:40;;;;;;;0.80;0.70;;;10.70;99.90;;;;;;5126980;27;20943;-87
2023/03/09 01:54:09;;;;;;;1.73;0.80;;;10.90;99.90;;;;;;5119115;27;20460;-89
2023/03/09 01:56:37;;;;;;;1.07;0.70;;;10.90;99.90;;;;;;5108072;28;20443;-86
2023/03/09 01:59:05;;;;;;;1.93;0.80;;;11.00;99.90;;;;;;5108777;28;20927;-89
2023/03/09 02:01:36;;;;;;;0.80;0.70;;;11.10;99.90;;;;;;5105839;28;20708;-88
2023/03/09 02:04:07;;;;;;;1.77;0.70;;;11.10;99.90;;;;;;5105611;28;20572;-85
2023/03/09 02:06:35;;;;;;;0.80;0.60;;;11.00;99.90;;;;;;5106161;28;20452;-86
2023/03/09 02:09:09;;;;;;;0.80;0.60;;;11.20;99.90;;;;;;5106626;28;20439;-86
2023/03/09 02:11:37;;;;;;;0.70;0.60;;;11.20;99.90;;;;;;5105272;28;20827;-88
2023/03/09 02:14:04;;;;;;;0.80;0.70;;;11.20;99.90;;;;;;5105684;28;20827;-87
2023/03/09 02:16:31;;;;;;;0.73;0.63;;;11.00;99.90;;;;;;5105511;28;20454;-87
2023/03/09 02:18:59;;;;;;;0.80;0.70;;;10.90;99.90;;;;;;5105900;28;20448;-89
2023/03/09 02:21:34;;;;;;;0.77;0.67;;;10.90;99.90;;;;;;5110899;28;20464;-85
2023/03/09 02:24:08;;;;;;;0.73;0.60;;;10.80;99.90;;;;;;5110807;28;20548;-86
2023/03/09 02:26:39;;;;;;;0.80;0.80;;;10.90;99.90;;;;;;5111897;28;21115;-87
2023/03/09 02:29:08;;;;;;;1.27;0.60;;;10.80;99.90;;;;;;5137227;27;20508;-87
2023/03/09 02:31:34;;;;;;;0.93;0.83;;;10.80;99.90;;;;;;5142638;27;20459;-88
2023/03/09 02:34:01;;;;;;;0.80;0.70;;;10.80;99.90;;;;;;5137405;27;20450;-84
2023/03/09 02:36:28;;;;;;;1.30;0.80;;;10.60;99.90;;;;;;5132362;27;20530;-86
2023/03/09 02:38:56;;;;;;;1.97;0.80;;;10.50;99.90;;;;;;5137786;27;20445;-84
2023/03/09 02:41:23;;;;;;;1.10;0.80;;;10.60;99.90;;;;;;5132984;27;20539;-85
2023/03/09 02:43:52;;;;;;;0.80;0.80;;;10.50;99.90;;;;;;5130044;27;20474;-88
2023/03/09 02:46:20;;;;;;;0.90;0.80;;;10.10;99.90;;;;;;5132937;27;20812;-86
2023/03/09 02:48:47;;;;;;;0.80;0.70;;;9.80;99.90;;;;;;5139124;27;20418;-82
2023/03/09 02:53:49;;;;;;;4.97;0.97;;;9.20;99.90;;;;;;5798038;22;20507;-80
2023/03/09 03:19:36;;;;;;;3.10;1.00;;;7.80;99.90;;;;;;5635106;22;20473;-81
2023/03/09 03:22:08;;;;;;;1.83;0.90;;;7.80;99.90;;;;;;5574551;22;20556;-81
2023/03/09 03:37:32;;;;;;;1.00;0.90;;;8.10;99.90;;;;;;5154305;22;20491;-86
2023/03/09 03:40:00;;;;;;;0.90;0.80;;;8.00;99.90;;;;;;5035916;28;20447;-86
2023/03/09 03:42:27;;;;;;;1.10;1.00;;;8.10;99.90;;;;;;5042718;28;20491;-82
2023/03/09 03:47:29;;;;;;;2.13;0.93;;;8.40;99.90;;;;;;5308960;22;20852;-85
2023/03/09 03:49:56;;;;;;;7.00;1.07;;;8.30;99.90;;;;;;5039074;28;20493;-85
2023/03/09 03:52:26;;;;;;;2.00;1.10;;;8.40;99.90;;;;;;5041915;28;20439;-82
2023/03/09 04:00:09;;;;;;;1.47;1.10;;;8.80;99.90;;;;;;6081621;22;20401;-82
2023/03/09 04:02:36;;;;;;;2.03;1.00;;;8.80;99.90;;;;;;5060323;28;20454;-80
2023/03/09 04:07:38;;;;;;;1.83;0.80;;;8.80;99.90;;;;;;6022033;22;20535;-83
2023/03/09 04:10:06;;;;;;;0.90;0.80;;;8.70;99.90;;;;;;5063823;28;20442;-82
2023/03/09 04:12:34;;;;;;;1.10;0.87;;;8.70;99.90;;;;;;5069581;28;20451;-82
2023/03/09 04:15:01;;;;;;;1.47;1.00;;;8.90;99.90;;;;;;5073221;28;20448;-83
2023/03/09 04:17:29;;;;;;;1.10;0.90;;;8.80;99.90;;;;;;5070732;28;20481;-82
2023/03/09 04:22:32;;;;;;;1.00;0.80;;;9.00;99.90;;;;;;5932382;22;20528;-83
2023/03/09 04:24:58;;;;;;;1.53;0.90;;;9.00;99.90;;;;;;5071978;28;20754;-83
2023/03/09 04:27:25;;;;;;;1.13;0.90;;;9.00;99.90;;;;;;5071595;28;20449;-83
2023/03/09 04:29:52;;;;;;;1.30;1.00;;;9.30;99.90;;;;;;5253712;22;20494;-81
2023/03/09 04:32:19;;;;;;;1.37;0.90;;;8.90;99.90;;;;;;5046548;28;20957;-85
2023/03/09 04:34:47;;;;;;;2.03;1.00;;;8.70;99.90;;;;;;5041191;28;21092;-85
2023/03/09 04:37:14;;;;;;;1.13;0.97;;;8.70;99.90;;;;;;5038351;28;20550;-83
2023/03/09 04:39:41;;;;;;;2.53;1.00;;;8.70;99.90;;;;;;5053263;28;20434;-81
2023/03/09 04:42:08;;;;;;;1.20;1.00;;;8.70;99.90;;;;;;5042817;28;20440;-82
2023/03/09 04:54:58;;;;;;;1.00;0.80;;;8.80;99.90;;;;;;5766604;22;20475;-82
2023/03/09 04:57:28;;;;;;;1.00;0.90;;;8.70;99.90;;;;;;5058507;28;20443;-79
2023/03/09 05:12:53;;;;;;;1.27;1.00;;;7.90;99.90;;;;;;5124173;22;20496;-79
2023/03/09 05:15:20;;;;;;;2.17;1.00;;;8.00;99.90;;;;;;5073774;28;20440;-79
2023/03/09 05:17:47;;;;;;;1.43;1.00;;;8.00;99.90;;;;;;5073012;28;20449;-78
2023/03/09 05:22:50;;;;;;;3.43;1.13;;;8.10;99.90;;;;;;5572733;22;20500;-81
2023/03/09 05:25:17;;;;;;;1.00;0.90;;;8.10;99.90;;;;;;5078396;28;20522;-80
2023/03/09 05:27:44;;;;;;;2.40;1.10;;;8.00;99.90;;;;;;5077194;28;20427;-80
2023/03/09 05:30:14;;;;;;;1.27;1.00;;;8.00;99.90;;;;;;5075833;28;20442;-82
2023/03/09 05:32:40;;;;;;;1.10;1.00;;;8.00;99.90;;;;;;5075969;28;20455;-78
2023/03/09 05:35:08;;;;;;;1.30;1.00;;;8.00;99.90;;;;;;5050316;28;20467;-77
2023/03/09 05:37:34;;;;;;;1.57;1.33;;;7.90;99.90;;;;;;5039205;28;20451;-78
2023/03/09 05:40:04;;;;;;;1.53;0.90;;;7.90;99.90;;;;;;5030547;28;20458;-78
2023/03/09 05:42:31;;;;;;;1.20;1.10;;;7.90;99.90;;;;;;5048391;28;20470;-77
2023/03/09 05:44:59;;;;;;;1.20;0.80;;;7.80;99.90;;;;;;5048333;28;21249;-78
2023/03/09 05:47:27;;;;;;;1.83;0.90;;;7.70;99.90;;;;;;5049358;28;20529;-77
2023/03/09 05:49:54;;;;;;;1.47;0.80;;;7.60;99.90;;;;;;5048468;28;20454;-78
2023/03/09 05:52:24;;;;;;;1.67;0.90;;;7.60;99.90;;;;;;5048127;28;20450;-77
2023/03/09 05:54:51;;;;;;;1.60;1.00;;;7.60;99.90;;;;;;5049425;28;20448;-78
2023/03/09 05:57:18;;;;;;;1.10;1.00;;;7.60;99.90;;;;;;5048942;28;20446;-78
2023/03/09 05:59:47;;;;;;;1.00;0.90;;;7.60;99.90;;;;;;5047329;28;20446;-77
2023/03/09 06:02:14;;;;;;;2.30;1.00;;;7.60;99.90;;;;;;5047645;28;20625;-78
2023/03/09 06:04:42;;;;;;;1.30;1.17;;;7.60;99.90;;;;;;5048085;28;20446;-78
2023/03/09 06:07:09;;;;;;;1.10;0.90;;;7.50;99.90;;;;;;5047295;28;20745;-76
2023/03/09 06:09:36;;;;;;;1.30;0.80;;;7.50;99.90;;;;;;5046899;28;20543;-77
2023/03/09 06:12:03;;;;;;;1.40;0.80;;;7.50;99.90;;;;;;5048278;28;21334;-80
2023/03/09 06:14:30;;;;;;;1.03;0.80;;;7.40;99.90;;;;;;5049410;28;20772;-79
2023/03/09 06:16:57;;;;;;;1.23;0.90;;;7.40;99.90;;;;;;5048541;28;20452;-80
2023/03/09 06:19:24;;;;;;;0.87;0.73;;;7.40;99.90;;;;;;5040732;28;20466;-78
2023/03/09 06:21:52;;;;;;;1.83;0.90;;;7.40;99.90;;;;;;5028867;28;20475;-77
2023/03/09 06:24:19;;;;;;;0.90;0.70;;;7.40;99.90;;;;;;5030032;28;20443;-76
2023/03/09 06:26:46;;;;;;;1.30;0.70;;;7.40;99.90;;;;;;5031134;28;20925;-78
2023/03/09 06:29:13;;;;;;;1.00;0.80;;;7.30;99.90;;;;;;5034185;28;20470;-78
2023/03/09 06:31:40;;;;;;;1.33;0.90;;;7.40;99.90;;;;;;5034457;28;20461;-78
2023/03/09 06:34:07;;;;;;;1.67;1.30;;;7.40;99.90;;;;;;5035664;28;20455;-78
2023/03/09 06:36:34;;;;;;;0.90;0.70;;;7.40;99.90;;;;;;5047780;28;20431;-72
2023/03/09 06:39:03;;;;;;;2.10;1.50;;;7.40;99.90;;;;;;5032061;28;20463;-75
2023/03/09 06:41:31;;;;;;;1.10;0.80;;;7.40;99.90;;;;;;5032397;28;20453;-75
2023/03/09 06:43:58;;;;;;;2.00;0.90;;;7.40;99.90;;;;;;5032081;28;20455;-74
2023/03/09 06:46:25;;;;;;;1.63;0.70;;;7.40;99.90;;;;;;5032299;28;20482;-74
2023/03/09 06:48:52;;;;;;;2.40;0.97;;;7.60;99.90;;;;;;5032550;28;20804;-74
2023/03/09 06:51:19;;;;;;;1.13;0.80;;;7.50;99.90;;;;;;5034520;28;20473;-75
2023/03/09 06:53:46;;;;;;;2.83;1.20;;;7.50;99.90;;;;;;5039497;28;20439;-77
2023/03/09 06:56:14;;;;;;;1.43;0.90;;;7.50;99.90;;;;;;5039599;28;20690;-74
2023/03/09 06:58:41;;;;;;;3.73;0.80;;;7.50;99.90;;;;;;5035476;28;20471;-74
2023/03/09 07:01:08;;;;;;;1.00;0.70;;;7.60;99.90;;;;;;5037125;28;20883;-77
2023/03/09 07:03:36;;;;;;;2.40;1.00;;;7.60;99.90;;;;;;5034890;28;20828;-77
2023/03/09 07:06:02;;;;;;;0.93;0.70;;;7.70;99.90;;;;;;5031547;28;20482;-75
2023/03/09 07:08:29;;;;;;;1.20;0.90;;;7.60;99.90;;;;;;5032928;28;20443;-73
2023/03/09 07:10:56;;;;;;;1.10;0.80;;;7.70;99.90;;;;;;5034060;28;20815;-77
2023/03/09 07:13:24;;;;;;;1.00;0.80;;;7.80;99.90;;;;;;5033582;28;20987;-75
2023/03/09 07:15:51;;;;;;;2.90;0.80;;;7.80;99.90;;;;;;5030951;28;20471;-72
2023/03/09 07:18:18;;;;;;;1.00;0.70;;;7.80;99.90;;;;;;5031317;28;20455;-74
2023/03/09 07:20:45;;;;;;;3.00;0.77;;;7.90;99.90;;;;;;5030837;28;20464;-74
2023/03/09 07:23:12;;;;;;;4.13;1.00;;;7.90;99.90;;;;;;5031244;28;20475;-73
2023/03/09 07:25:39;;;;;;;5.50;0.83;;;7.90;99.90;;;;;;5030675;28;20490;-72
2023/03/09 07:28:08;;;;;;;1.10;0.70;;;7.90;99.90;;;;;;5030917;28;20450;-71
2023/03/09 07:30:37;;;;;;;1.00;0.73;;;7.90;99.90;;;;;;5031045;28;20440;-72
2023/03/09 07:33:04;;;;;;;5.33;0.97;;;7.90;99.90;;;;;;5033631;28;20691;-72
2023/03/09 07:35:31;;;;;;;1.00;0.70;;;8.00;99.90;;;;;;5032066;28;20454;-72
2023/03/09 07:37:58;;;;;;;1.10;0.60;;;8.10;99.90;;;;;;5029676;28;20458;-72
2023/03/09 07:40:25;;;;;;;1.30;0.80;;;8.20;99.90;;;;;;5029819;28;20451;-72
2023/03/09 07:42:53;;;;;;;1.67;0.80;;;8.30;99.90;;;;;;5029875;28;20471;-72
2023/03/09 07:45:20;;;;;;;1.47;0.90;;;8.80;99.90;;;;;;5029747;28;20451;-72
2023/03/09 07:47:48;;;;;;;1.00;0.80;;;8.60;99.90;;;;;;5027794;28;20965;-73
2023/03/09 07:50:16;;;;;;;1.40;0.90;;;8.80;99.90;;;;;;5023127;28;20465;-72
2023/03/09 07:52:43;;;;;;;1.50;0.77;;;9.00;99.90;;;;;;5029140;28;20447;-72
2023/03/09 07:55:11;;;;;;;3.20;0.80;;;9.20;99.90;;;;;;5023311;28;20467;-72
2023/03/09 07:57:39;;;;;;;3.37;1.00;;;9.20;99.90;;;;;;5022518;28;20475;-72
2023/03/09 08:00:12;;;;;;;1.17;0.80;;;9.20;99.90;;;;;;5028108;28;20482;-74
2023/03/09 08:02:39;;;;;;;3.00;0.80;;;9.40;99.90;;;;;;5024174;28;20997;-73
2023/03/09 08:05:09;;;;;;;1.37;0.93;;;9.40;99.90;;;;;;5024725;28;20493;-72
2023/03/09 08:07:36;;;;;;;1.23;0.70;;;9.50;99.90;;;;;;5027757;28;20638;-73
2023/03/09 08:10:04;;;;;;;1.00;0.90;;;9.80;99.90;;;;;;5021252;28;20739;-75
2023/03/09 08:12:31;;;;;;;1.10;1.00;;;9.70;99.90;;;;;;5009120;28;20502;-73
2023/03/09 08:14:57;;;;;;;1.13;0.93;;;9.60;99.90;;;;;;5035661;28;20943;-73
2023/03/09 08:17:24;;;;;;;2.70;0.90;;;9.90;99.90;;;;;;5035468;28;20449;-73
2023/03/09 08:19:51;;;;;;;1.07;0.90;;;9.60;99.90;;;;;;5038102;28;20951;-72
2023/03/09 08:22:19;;;;;;;2.23;1.00;;;9.60;99.90;;;;;;5033540;28;20490;-74
2023/03/09 08:24:46;;;;;;;2.03;1.83;;;9.50;99.90;;;;;;5037112;28;20463;-73
2023/03/09 08:27:13;;;;;;;2.33;1.50;;;9.60;99.90;;;;;;5035951;28;20498;-74
2023/03/09 08:29:40;;;;;;;1.10;0.90;;;9.70;99.90;;;;;;5038243;28;20511;-73
2023/03/09 08:32:07;;;;;;;1.43;1.10;;;9.80;99.90;;;;;;5037475;28;20750;-74
2023/03/09 08:34:34;;;;;;;2.80;1.07;;;9.70;99.90;;;;;;5035864;28;20443;-74
2023/03/09 08:37:01;;;;;;;2.30;0.97;;;9.70;99.90;;;;;;5037599;28;20447;-72
2023/03/09 08:39:29;;;;;;;1.20;1.00;;;9.70;99.90;;;;;;5034300;28;20455;-73
2023/03/09 08:41:56;;;;;;;1.33;0.97;;;9.80;99.90;;;;;;5034637;28;20466;-73
2023/03/09 08:44:22;;;;;;;4.30;1.10;;;9.60;99.90;;;;;;5037823;28;20500;-73
2023/03/09 08:46:49;;;;;;;1.03;0.93;;;9.70;99.90;;;;;;5037775;28;20491;-73
2023/03/09 08:49:16;;;;;;;1.93;0.90;;;10.00;99.90;;;;;;5035793;28;20440;-73
2023/03/09 08:51:43;;;;;;;1.80;1.10;;;10.00;99.90;;;;;;5037264;28;20524;-73
2023/03/09 08:54:10;;;;;;;2.20;1.10;;;10.00;99.90;;;;;;5037241;28;20439;-73
2023/03/09 08:56:38;;;;;;;0.90;0.80;;;10.40;99.90;;;;;;5035591;28;20438;-72
2023/03/09 08:59:05;;;;;;;1.43;1.00;;;10.30;99.90;;;;;;5038519;28;20466;-72
2023/03/09 09:01:32;;;;;;;5.40;1.30;;;10.20;99.90;;;;;;5035751;28;20965;-71
2023/03/09 09:03:59;;;;;;;1.97;1.00;;;10.30;99.90;;;;;;5033211;28;20520;-73
2023/03/09 09:06:26;;;;;;;3.20;1.63;;;10.60;99.90;;;;;;5034706;28;20958;-76
2023/03/09 09:08:54;;;;;;;1.43;1.03;;;10.90;99.90;;;;;;5032953;28;20473;-72
2023/03/09 09:11:20;;;;;;;1.17;0.90;;;11.00;99.90;;;;;;5038704;28;20473;-71
2023/03/09 09:13:49;;;;;;;1.23;0.97;;;11.00;99.90;;;;;;5034209;28;20459;-72
2023/03/09 09:16:16;;;;;;;2.03;1.43;;;11.00;99.90;;;;;;5032199;28;20861;-74
2023/03/09 09:18:43;;;;;;;4.50;1.30;;;11.00;99.90;;;;;;5033737;28;20447;-73
2023/03/09 09:21:12;;;;;;;2.33;0.80;;;11.10;99.90;;;;;;5036308;28;20451;-73
2023/03/09 09:23:41;;;;;;;1.67;0.90;;;10.90;99.90;;;;;;5035872;28;20511;-72
2023/03/09 09:26:09;;;;;;;1.80;1.40;;;11.00;99.90;;;;;;5033961;28;20487;-72
2023/03/09 09:28:36;;;;;;;2.20;1.17;;;10.70;99.90;;;;;;5035988;28;20435;-72
2023/03/09 09:31:05;;;;;;;3.13;1.27;;;10.70;99.90;;;;;;5033482;28;20459;-73
2023/03/09 09:33:34;;;;;;;1.60;1.10;;;10.60;99.90;;;;;;5036401;28;20554;-73
2023/03/09 09:36:02;;;;;;;2.30;1.00;;;10.60;99.90;;;;;;5037421;28;20775;-73
2023/03/09 09:38:30;;;;;;;2.80;1.10;;;10.50;99.90;;;;;;5032941;28;20447;-73
2023/03/09 09:41:00;;;;;;;6.40;1.30;;;10.50;99.90;;;;;;5024775;28;20493;-72
2023/03/09 09:43:27;;;;;;;3.40;1.40;;;10.60;99.90;;;;;;5020991;28;20505;-72
2023/03/09 09:45:57;;;;;;;4.43;1.57;;;10.70;99.90;;;;;;5026548;28;20455;-71
2023/03/09 09:48:26;;;;;;;4.03;1.77;;;10.90;99.90;;;;;;5026098;28;20467;-75
2023/03/09 09:51:10;;;;;;;2.13;1.20;;;10.90;99.90;;;;;;5026156;28;20451;-75
2023/03/09 09:53:50;;;;;;;3.50;1.30;;;10.90;99.90;;;;;;5025919;28;20447;-71
2023/03/09 09:56:22;;;;;;;2.37;1.30;;;11.00;99.90;;;;;;5025808;28;20815;-71
2023/03/09 09:58:54;;;;;;;2.10;1.40;;;10.90;99.90;;;;;;5026696;28;20467;-73
2023/03/09 10:01:27;;;;;;;1.83;1.00;;;11.10;99.90;;;;;;5026378;28;20447;-71
2023/03/09 10:04:00;;;;;;;1.80;1.00;;;11.00;99.90;;;;;;5026175;28;20890;-73
2023/03/09 10:06:29;;;;;;;1.30;1.20;;;10.90;99.90;;;;;;5027842;28;20499;-72
2023/03/09 10:08:59;;;;;;;1.20;1.00;;;10.70;99.90;;;;;;5038454;28;20457;-71
2023/03/09 10:11:29;;;;;;;2.07;1.23;;;10.60;99.90;;;;;;5041095;28;20843;-71
2023/03/09 10:14:02;;;;;;;1.70;1.03;;;10.60;99.90;;;;;;5039826;28;20443;-73
2023/03/09 10:16:34;;;;;;;5.80;1.50;;;10.80;99.90;;;;;;5038476;28;20438;-71
2023/03/09 10:19:08;;;;;;;2.27;1.70;;;10.60;99.90;;;;;;5040729;28;20454;-71
2023/03/09 10:21:42;;;;;;;3.20;1.57;;;10.90;99.90;;;;;;5035834;28;21055;-71
2023/03/09 10:24:20;;;;;;;1.40;1.10;;;11.10;99.90;;;;;;5040821;28;20464;-70
2023/03/09 10:26:55;;;;;;;1.50;0.73;;;11.00;99.90;;;;;;5041013;28;20470;-71
2023/03/09 10:29:27;;;;;;;1.67;1.00;;;11.00;99.90;;;;;;5040319;28;20439;-71
2023/03/09 10:32:02;;;;;;;1.93;1.07;;;11.00;99.90;;;;;;5032194;28;20459;-72
2023/03/09 10:34:39;;;;;;;3.43;1.20;;;11.00;99.90;;;;;;5041047;28;20564;-71
2023/03/09 10:37:13;;;;;;;5.73;1.13;;;10.80;99.90;;;;;;5040900;28;20456;-70
2023/03/09 10:39:44;;;;;;;2.10;1.40;;;10.70;99.90;;;;;;5042956;28;20520;-71
2023/03/09 10:42:19;;;;;;;2.50;1.30;;;10.70;99.90;;;;;;5043918;28;20459;-72
2023/03/09 10:44:57;;;;;;;5.37;1.33;;;10.70;99.90;;;;;;5043768;28;20551;-72
2023/03/09 10:47:24;;;;;;;2.83;1.30;;;10.80;99.90;;;;;;5034776;28;20496;-71
2023/03/09 10:50:10;;;;;;;1.40;0.90;;;10.80;99.90;;;;;;5037278;28;20950;-72
2023/03/09 10:52:37;;;;;;;3.13;1.40;;;10.80;99.90;;;;;;5037466;28;20946;-73
2023/03/09 10:55:23;;;;;;;1.50;1.20;;;10.90;99.90;;;;;;5039223;28;20971;-73
2023/03/09 10:57:56;;;;;;;4.40;1.47;;;10.80;99.90;;;;;;5037234;28;20458;-72
2023/03/09 11:00:24;;;;;;;4.67;1.10;;;10.90;99.90;;;;;;5036758;28;20467;-72
2023/03/09 11:02:54;;;;;;;1.40;1.03;;;10.90;99.90;;;;;;5038696;28;20542;-73
2023/03/09 11:05:24;;;;;;;4.57;1.30;;;10.90;99.90;;;;;;5039748;28;20927;-72
2023/03/09 11:07:53;;;;;;;1.33;0.70;;;11.00;99.90;;;;;;5037559;28;20843;-71
2023/03/09 11:10:28;;;;;;;2.00;1.30;;;11.30;99.90;;;;;;5037284;28;20557;-73
2023/03/09 11:12:55;;;;;;;2.23;1.30;;;11.60;99.90;;;;;;5035098;28;20806;-74
2023/03/09 11:15:28;;;;;;;2.20;1.33;;;11.70;99.90;;;;;;5038461;28;20990;-76
2023/03/09 11:17:56;;;;;;;3.63;1.00;;;11.80;99.90;;;;;;5033165;28;21042;-73
2023/03/09 11:20:29;;;;;;;3.97;1.30;;;11.70;99.90;;;;;;5037704;28;20479;-73
2023/03/09 11:23:14;;;;;;;2.37;1.40;;;11.80;99.90;;;;;;5035496;28;20472;-72
2023/03/09 11:26:00;;;;;;;1.00;0.90;;;11.80;99.90;;;;;;5036508;28;20451;-74
2023/03/09 11:28:38;;;;;;;2.20;1.20;;;11.70;99.90;;;;;;5035405;28;20483;-71
2023/03/09 11:31:13;;;;;;;4.10;1.07;;;11.70;99.90;;;;;;5037068;28;20972;-71
2023/03/09 11:33:40;;;;;;;1.47;1.10;;;11.60;99.90;;;;;;5036517;28;20467;-72
2023/03/09 11:36:12;;;;;;;1.73;1.00;;;11.40;99.90;;;;;;5037133;28;21123;-71
2023/03/09 11:38:41;;;;;;;2.37;1.50;;;11.60;99.90;;;;;;5033866;28;20815;-72
2023/03/09 11:41:14;;;;;;;2.37;1.27;;;11.80;99.90;;;;;;5038071;28;20442;-66
2023/03/09 11:43:44;;;;;;;3.40;1.10;;;12.10;99.90;;;;;;5038083;28;20452;-67
2023/03/09 11:46:15;;;;;;;5.13;1.50;;;12.10;99.90;;;;;;5035197;28;20455;-66
2023/03/09 11:48:45;;;;;;;1.63;1.53;;;11.90;99.90;;;;;;5038117;28;20579;-66
2023/03/09 11:51:19;;;;;;;7.67;1.23;;;11.80;99.90;;;;;;5034447;28;20452;-71
2023/03/09 11:53:51;;;;;;;1.63;1.10;;;12.00;99.90;;;;;;5036467;28;20958;-71
2023/03/09 11:56:23;;;;;;;3.37;1.60;;;13.20;99.90;;;;;;5034994;28;20938;-72
2023/03/09 11:58:55;;;;;;;3.10;1.50;;;12.80;99.90;;;;;;5036383;28;21040;-71
2023/03/09 12:01:27;;;;;;;2.93;1.57;;;12.80;99.90;;;;;;5036753;28;20443;-72
2023/03/09 12:03:59;;;;;;;2.60;1.30;;;12.40;99.90;;;;;;5033155;28;20633;-71
2023/03/09 12:06:38;;;;;;;2.90;1.20;;;12.60;99.90;;;;;;5038348;28;20931;-70
2023/03/09 12:09:09;;;;;;;4.93;1.43;;;13.30;99.90;;;;;;5036453;28;20447;-70
2023/03/09 12:11:41;;;;;;;6.30;1.40;;;14.00;99.90;;;;;;5034258;28;20443;-72
2023/03/09 12:14:19;;;;;;;1.67;1.20;;;13.90;99.90;;;;;;5039079;28;20450;-74
2023/03/09 12:16:49;;;;;;;2.57;1.37;;;13.50;99.90;;;;;;5034390;28;20542;-72
2023/03/09 12:19:17;;;;;;;2.10;1.37;;;13.90;99.90;;;;;;5036064;28;20466;-73
2023/03/09 12:21:50;;;;;;;1.20;1.00;;;14.00;99.90;;;;;;5036323;28;20618;-72
2023/03/09 12:24:28;;;;;;;4.03;1.00;;;14.50;99.90;;;;;;5042675;28;20454;-74
2023/03/09 12:27:05;;;;;;;3.90;0.90;;;14.70;99.90;;;;;;5047131;28;20446;-69
2023/03/09 12:29:38;;;;;;;2.03;1.33;;;15.90;99.90;;;;;;5046660;28;20453;-73
2023/03/09 12:32:43;;;;;;;2.83;1.43;;;14.60;99.90;;;;;;5047913;28;20450;-69
2023/03/09 12:35:14;;;;;;;2.33;1.20;;;14.70;99.90;;;;;;5032018;28;20977;-71
2023/03/09 12:38:15;;;;;;;4.87;1.70;;;14.90;99.90;;;;;;5037000;28;20442;-71
2023/03/09 12:40:43;;;;;;;5.13;1.80;;;14.80;99.90;;;;;;5035701;28;20443;-81
2023/03/09 12:43:33;;;;;;;3.00;1.20;;;15.10;99.90;;;;;;5037543;28;20446;-80
2023/03/09 12:46:52;;;;;;;2.30;1.20;;;15.00;99.90;;;;;;5037326;28;20459;-85
2023/03/09 12:49:22;;;;;;;4.23;1.30;;;15.80;99.90;;;;;;5036683;28;20474;-78
2023/03/09 12:52:08;;;;;;;3.93;1.90;;;15.30;99.90;;;;;;5033263;28;20801;-85
2023/03/09 12:54:36;;;;;;;1.73;1.00;;;15.10;99.90;;;;;;5033555;28;20486;-83
2023/03/09 12:57:21;;;;;;;1.80;1.40;;;15.40;99.90;;;;;;5037366;28;20530;-82
2023/03/09 12:59:49;;;;;;;3.37;1.70;;;14.70;99.90;;;;;;5035618;28;20450;-87
2023/03/09 13:02:30;;;;;;;3.50;1.70;;;14.00;99.90;;;;;;5046270;28;20443;-87
2023/03/09 13:05:28;;;;;;;4.87;1.50;;;15.20;99.90;;;;;;5044901;28;20478;-84
2023/03/09 13:08:02;;;;;;;4.00;1.33;;;14.70;99.90;;;;;;5032000;28;20479;-84
2023/03/09 13:10:33;;;;;;;2.97;1.20;;;15.60;99.90;;;;;;5042825;28;20446;-88
2023/03/09 13:13:33;;;;;;;3.10;1.20;;;14.60;99.90;;;;;;5041916;28;20436;-89
2023/03/09 13:16:49;;;;;;;1.50;1.40;;;14.50;99.90;;;;;;4998060;28;20444;-86
2023/03/09 13:19:40;;;;;;;2.53;1.07;;;14.40;99.90;;;;;;5037260;28;20469;-87
2023/03/09 13:22:15;;;;;;;2.33;1.30;;;14.50;99.90;;;;;;5036799;28;20557;-86
2023/03/09 13:24:43;;;;;;;2.70;1.10;;;14.50;99.90;;;;;;5039235;28;20454;-86
2023/03/09 13:27:16;;;;;;;2.50;1.10;;;14.40;99.90;;;;;;5041741;28;20431;-88
2023/03/09 13:29:47;;;;;;;2.17;1.30;;;14.80;99.90;;;;;;5042840;28;20443;-89
2023/03/09 13:32:23;;;;;;;1.87;1.13;;;14.70;99.90;;;;;;5038442;28;20689;-87
2023/03/09 13:34:53;;;;;;;2.33;1.60;;;15.60;99.90;;;;;;5037537;28;20479;-83
2023/03/09 13:37:23;;;;;;;3.90;1.93;;;16.20;99.90;;;;;;5040791;28;20454;-82
2023/03/09 13:39:58;;;;;;;3.63;1.77;;;16.40;99.90;;;;;;5034730;28;20930;-86
2023/03/09 13:42:27;;;;;;;3.10;1.40;;;15.90;99.90;;;;;;5038036;28;20450;-85
2023/03/09 13:44:54;;;;;;;2.00;1.30;;;15.70;99.90;;;;;;5036911;28;20443;-84
2023/03/09 13:47:24;;;;;;;2.20;1.23;;;15.60;99.90;;;;;;5035405;28;20631;-76
2023/03/09 13:49:52;;;;;;;2.40;1.23;;;14.80;99.90;;;;;;5033007;28;20778;-76
2023/03/09 13:52:19;;;;;;;2.80;1.20;;;15.90;99.90;;;;;;5036573;28;20443;-76
2023/03/09 13:54:50;;;;;;;2.33;1.40;;;17.40;99.90;;;;;;5034381;28;20977;-75
2023/03/09 13:57:19;;;;;;;1.97;1.00;;;16.70;99.90;;;;;;5034142;28;20452;-74
2023/03/09 13:59:54;;;;;;;1.60;1.30;;;15.70;99.90;;;;;;5035081;28;20964;-75
2023/03/09 14:02:22;;;;;;;2.50;1.20;;;15.30;99.90;;;;;;5033755;28;20465;-75
2023/03/09 14:04:51;;;;;;;1.50;1.20;;;15.50;99.90;;;;;;5035149;28;20687;-76
2023/03/09 14:07:21;;;;;;;1.70;1.30;;;14.70;99.90;;;;;;5034275;28;20657;-75
2023/03/09 14:09:54;;;;;;;1.47;1.07;;;14.30;99.90;;;;;;5031683;28;20983;-79
2023/03/09 14:12:28;;;;;;;8.50;1.23;;;14.10;99.90;;;;;;5027011;28;20486;-77
2023/03/09 14:15:07;;;;;;;2.73;1.10;;;13.80;99.90;;;;;;5033371;28;20447;-77
2023/03/09 14:17:35;;;;;;;1.43;1.03;;;13.90;99.90;;;;;;5034000;28;20450;-75
2023/03/09 14:20:04;;;;;;;2.20;1.40;;;13.30;99.90;;;;;;5036519;28;20466;-87
2023/03/09 14:22:32;;;;;;;5.37;1.40;;;13.30;99.90;;;;;;5031059;28;20482;-85
2023/03/09 14:24:59;;;;;;;5.47;1.90;;;13.10;99.90;;;;;;5028686;28;20516;-88
2023/03/09 14:27:30;;;;;;;2.53;1.30;;;12.90;99.90;;;;;;5041475;28;20458;-86